Time;durP1;ratioP1;P1;durP2;ratioP2;P2;SDS_P1;SDS_P2;PMS_P1;PMS_P2;Temp;Humidity;BMP_temperature;BMP_pressure;BME280_temperature;BME280_humidity;BME280_pressure;Samples;Min_cycle;Max_cycle;Signal;HPM_P1;HPM_P2
2023/07/05 00:02:13;;;;;;;;;12.67;11.00;;;;;25.35;53.11;100609.56;146610;630;47016;-65
2023/07/05 00:05:08;;;;;;;;;13.33;12.33;;;;;25.34;54.43;100613.13;146618;569;46020;-64
2023/07/05 00:08:05;;;;;;;;;16.50;15.00;;;;;25.31;54.60;100620.25;146612;610;46016;-64
2023/07/05 00:11:06;;;;;;;;;11.00;11.00;;;;;25.31;54.00;100612.28;146620;596;46010;-63
2023/07/05 00:14:04;;;;;;;;;14.00;12.33;;;;;25.35;54.58;100617.53;146605;598;47917;-63
2023/07/05 00:17:02;;;;;;;;;15.25;12.75;;;;;25.38;54.10;100613.09;146617;579;46020;-62
2023/07/05 00:20:09;;;;;;;;;14.50;14.50;;;;;25.40;54.11;100611.31;146613;573;47043;-62
2023/07/05 00:23:15;;;;;;;;;14.75;13.25;;;;;25.30;54.95;100619.38;146614;591;46010;-64
2023/07/05 00:26:11;;;;;;;;;15.67;14.00;;;;;25.20;55.16;100620.34;146618;658;45016;-63
2023/07/05 00:29:06;;;;;;;;;14.50;14.00;;;;;25.20;55.10;100620.34;146619;646;46021;-62
2023/07/05 00:32:11;;;;;;;;;16.00;13.50;;;;;25.22;54.85;100620.34;146610;622;46916;-64
2023/07/05 00:35:07;;;;;;;;;13.00;12.25;;;;;25.17;55.31;100622.16;146613;623;46010;-63
2023/07/05 00:38:01;;;;;;;;;15.50;14.75;;;;;25.07;55.56;100621.34;146614;598;46012;-64
2023/07/05 00:41:00;;;;;;;;;11.75;11.75;;;;;24.99;55.77;100623.22;146618;569;46012;-63
2023/07/05 00:43:52;;;;;;;;;15.00;13.67;;;;;24.94;56.20;100631.22;146612;638;47016;-63
2023/07/05 00:46:51;;;;;;;;;15.50;13.75;;;;;24.88;57.03;100621.53;146618;741;46010;-62
2023/07/05 00:49:43;;;;;;;;;13.25;12.75;;;;;24.85;58.08;100632.16;146612;664;47012;-63
2023/07/05 00:52:35;;;;;;;;;15.75;13.50;;;;;24.83;58.53;100638.41;146615;718;47020;-62
2023/07/05 00:55:38;;;;;;;;;14.25;13.25;;;;;24.76;57.89;100621.62;146613;571;46916;-62
2023/07/05 00:58:43;;;;;;;;;11.67;11.67;;;;;24.73;57.58;100616.34;146616;676;46012;-64
2023/07/05 01:01:41;;;;;;;;;14.33;12.67;;;;;24.73;58.07;100620.78;146615;587;46014;-63
2023/07/05 01:04:39;;;;;;;;;15.33;15.33;;;;;24.68;58.16;100619.97;146616;565;46021;-64
2023/07/05 01:07:35;;;;;;;;;13.25;11.00;;;;;24.64;57.39;100619.09;146609;639;46016;-64
2023/07/05 01:10:38;;;;;;;;;13.67;11.67;;;;;24.59;56.50;100610.31;146613;565;46010;-64
2023/07/05 01:13:42;;;;;;;;;15.00;12.75;;;;;24.63;56.70;100609.38;146613;579;46013;-64
2023/07/05 01:17:27;;;;;;;;;12.00;10.67;;;;;24.73;55.77;100604.88;146614;564;46010;-63
2023/07/05 01:21:16;;;;;;;;;11.67;11.33;;;;;23.33;55.75;100370.16;146612;637;46017;-63
2023/07/05 01:24:58;;;;;;;;;14.75;13.00;;;;;23.30;55.71;100367.53;146615;577;46012;-63
2023/07/05 01:28:33;;;;;;;;;14.25;13.00;;;;;23.28;55.90;100366.69;146607;641;46915;-63
2023/07/05 01:32:14;;;;;;;;;14.75;13.50;;;;;24.64;55.87;100595.22;146614;565;46020;-63
2023/07/05 01:35:23;;;;;;;;;17.75;14.00;;;;;24.63;55.79;100593.47;146611;659;46017;-61
2023/07/05 01:38:16;;;;;;;;;13.75;13.25;;;;;24.59;56.38;100586.44;146612;714;46020;-63
2023/07/05 01:41:15;;;;;;;;;13.75;11.75;;;;;24.53;56.22;100592.69;146610;657;46012;-63
2023/07/05 01:44:17;;;;;;;;;12.75;12.00;;;;;24.45;56.47;100591.84;146607;736;47021;-62
2023/07/05 01:47:36;;;;;;;;;15.75;13.50;;;;;24.36;56.60;100590.13;146609;658;47012;-64
2023/07/05 01:50:45;;;;;;;;;12.25;10.75;;;;;24.26;56.49;100587.53;146613;632;46020;-62
2023/07/05 01:54:05;;;;;;;;;13.75;12.25;;;;;24.20;56.36;100586.72;146606;639;47016;-62
2023/07/05 01:57:34;;;;;;;;;16.00;11.75;;;;;24.15;56.47;100587.62;146609;592;47013;-61
2023/07/05 02:00:38;;;;;;;;;15.25;12.50;;;;;24.08;56.46;100585.87;146607;590;47012;-62
2023/07/05 02:03:39;;;;;;;;;13.50;13.00;;;;;24.05;57.03;100592.13;146612;579;46010;-62
2023/07/05 02:06:43;;;;;;;;;13.25;12.50;;;;;24.07;57.27;100592.09;146607;571;47012;-63
2023/07/05 02:09:55;;;;;;;;;14.75;12.50;;;;;22.71;55.85;100363.41;146612;647;47010;-62
2023/07/05 02:13:04;;;;;;;;;16.50;13.25;;;;;23.85;56.19;100557.78;146609;569;46913;-62
2023/07/05 02:16:02;;;;;;;;;17.00;12.75;;;;;24.08;56.60;100600.03;146612;611;46020;-62
2023/07/05 02:18:54;;;;;;;;;12.00;10.75;;;;;24.02;56.76;100599.16;146609;658;47917;-62
2023/07/05 02:21:47;;;;;;;;;15.33;13.00;;;;;23.95;57.13;100604.50;146614;592;46010;-62
2023/07/05 02:25:00;;;;;;;;;13.33;12.00;;;;;22.97;56.29;100438.25;146608;595;46016;-62
2023/07/05 02:27:58;;;;;;;;;11.25;11.25;;;;;23.90;57.17;100606.31;146612;577;47016;-62
2023/07/05 02:31:06;;;;;;;;;14.00;13.00;;;;;23.89;57.49;100601.00;146609;576;47016;-63
2023/07/05 02:33:58;;;;;;;;;14.67;12.33;;;;;23.81;57.79;100603.72;146611;654;46021;-62
2023/07/05 02:36:50;;;;;;;;;13.67;11.00;;;;;23.76;57.97;100609.91;146606;642;46016;-61
2023/07/05 02:40:06;;;;;;;;;21.50;14.75;;;;;23.80;57.75;100606.34;146612;577;46020;-62
2023/07/05 02:42:59;;;;;;;;;13.50;13.50;;;;;23.83;57.88;100609.91;146610;711;46016;-62
2023/07/05 02:45:54;;;;;;;;;14.50;13.00;;;;;23.80;57.77;100611.66;146611;669;46020;-64
2023/07/05 02:48:46;;;;;;;;;15.75;12.25;;;;;23.74;58.11;100608.16;146603;570;47031;-62
2023/07/05 02:51:59;;;;;;;;;;;;;;;;;;;;;
2023/07/05 02:54:55;;;;;;;;;16.25;13.50;;;;;23.82;58.23;100607.22;146609;576;46016;-63
2023/07/05 02:57:50;;;;;;;;;11.75;11.75;;;;;23.79;57.85;100608.12;146614;579;46020;-62
2023/07/05 03:00:48;;;;;;;;;13.00;11.25;;;;;23.79;57.62;100612.53;146610;574;46012;-63
2023/07/05 03:03:40;;;;;;;;;12.00;10.50;;;;;23.87;58.35;100603.69;146615;572;46011;-61
2023/07/05 03:06:46;;;;;;;;;14.50;12.00;;;;;23.95;57.27;100601.84;146608;578;46016;-62
2023/07/05 03:09:48;;;;;;;;;13.00;13.00;;;;;24.00;57.39;100606.25;146613;599;46020;-62
2023/07/05 03:12:46;;;;;;;;;16.75;14.00;;;;;24.05;57.87;100609.75;146610;575;46016;-65
2023/07/05 03:15:40;;;;;;;;;13.00;12.00;;;;;24.10;57.22;100603.53;146611;666;47020;-63
2023/07/05 03:18:39;;;;;;;;;17.00;15.00;;;;;24.18;57.27;100606.16;146611;620;47012;-64
2023/07/05 03:21:33;;;;;;;;;14.25;13.25;;;;;24.25;57.03;100607.88;146613;569;46020;-62
2023/07/05 03:24:27;;;;;;;;;13.00;12.75;;;;;24.21;56.57;100600.84;146612;671;46016;-64
2023/07/05 03:27:21;;;;;;;;;15.00;13.00;;;;;24.20;56.74;100599.97;146611;705;46010;-64
2023/07/05 03:30:16;;;;;;;;;16.50;14.75;;;;;24.15;57.28;100600.88;146609;672;46014;-64
2023/07/05 03:33:14;;;;;;;;;16.50;16.00;;;;;24.04;57.30;100603.56;146614;577;46020;-63
2023/07/05 03:36:24;;;;;;;;;15.00;10.50;;;;;23.97;56.98;100604.50;146609;581;46012;-64
2023/07/05 03:39:26;;;;;;;;;14.50;13.75;;;;;23.96;57.31;100606.28;146615;598;46010;-64
2023/07/05 03:42:29;;;;;;;;;12.50;11.25;;;;;23.94;57.87;100612.47;146609;714;46016;-64
2023/07/05 03:45:24;;;;;;;;;17.50;17.50;;;;;23.90;57.49;100606.31;146611;614;46020;-65
2023/07/05 03:48:19;;;;;;;;;16.25;15.00;;;;;23.92;57.77;100607.16;146609;606;46016;-64
2023/07/05 03:51:13;;;;;;;;;14.50;13.00;;;;;23.98;58.10;100619.50;146604;695;47010;-65
2023/07/05 03:54:13;;;;;;;;;13.00;13.00;;;;;23.94;57.48;100605.41;146608;627;46917;-62
2023/07/05 03:57:18;;;;;;;;;13.50;12.25;;;;;23.94;57.64;100608.06;146609;571;46027;-63
2023/07/05 04:00:19;;;;;;;;;16.25;14.50;;;;;23.98;57.37;100606.25;146609;578;46026;-63
2023/07/05 04:03:11;;;;;;;;;12.50;12.50;;;;;24.04;58.21;100605.34;146610;619;46020;-63
2023/07/05 04:06:06;;;;;;;;;17.25;15.00;;;;;24.11;58.09;100605.31;146606;573;47014;-63
2023/07/05 04:09:18;;;;;;;;;15.00;15.00;;;;;24.18;59.04;100604.38;146611;581;47021;-62
2023/07/05 04:12:18;;;;;;;;;16.25;15.00;;;;;24.36;58.74;100616.63;146612;571;46016;-63
2023/07/05 04:15:16;;;;;;;;;16.50;14.50;;;;;24.57;59.60;100617.38;146612;619;47010;-63
2023/07/05 04:18:17;;;;;;;;;15.75;13.75;;;;;24.74;59.96;100607.53;146605;641;46017;-63
2023/07/05 04:21:14;;;;;;;;;16.50;15.75;;;;;24.98;60.26;100609.06;146615;582;46020;-64
2023/07/05 04:24:21;;;;;;;;;14.00;13.25;;;;;25.21;58.65;100603.56;146610;654;47016;-64
2023/07/05 04:27:23;;;;;;;;;16.50;15.00;;;;;25.46;58.89;100613.91;146615;665;45021;-64
2023/07/05 04:30:19;;;;;;;;;17.25;15.00;;;;;25.66;58.86;100617.19;146610;569;46014;-65
2023/07/05 04:33:11;;;;;;;;;13.50;13.00;;;;;25.83;58.33;100608.19;146613;625;46020;-63
2023/07/05 04:36:07;;;;;;;;;16.75;14.25;;;;;26.03;58.67;100606.97;146610;566;46012;-63
2023/07/05 04:39:20;;;;;;;;;17.25;15.50;;;;;26.29;56.88;100605.72;146613;614;46020;-64
2023/07/05 04:42:12;;;;;;;;;13.75;12.25;;;;;26.53;57.38;100604.47;146607;599;46017;-64
2023/07/05 04:45:10;;;;;;;;;15.75;14.75;;;;;26.74;57.06;100610.37;146609;706;47010;-64
2023/07/05 04:48:11;;;;;;;;;13.75;13.50;;;;;26.92;55.65;100612.72;146608;620;46013;-63
2023/07/05 04:51:05;;;;;;;;;13.25;12.75;;;;;27.09;55.63;100607.94;146609;713;46010;-64
2023/07/05 04:54:10;;;;;;;;;;;;;;;;;;;;;
2023/07/05 04:57:06;;;;;;;;;18.00;16.25;;;;;27.37;54.57;100610.97;146613;603;46010;-65
2023/07/05 05:00:05;;;;;;;;;17.00;16.00;;;;;27.48;54.59;100617.91;146608;695;46016;-63
2023/07/05 05:03:00;;;;;;;;;19.00;16.25;;;;;27.59;54.22;100616.75;146611;668;46010;-63
2023/07/05 05:05:55;;;;;;;;;16.50;14.00;;;;;27.70;53.35;100611.22;146609;687;46016;-65
2023/07/05 05:09:07;;;;;;;;;18.00;15.00;;;;;25.56;52.58;100235.91;146607;677;47021;-65
2023/07/05 05:12:08;;;;;;;;;28.75;27.00;;;;;27.90;52.59;100618.78;146608;597;46016;-66
2023/07/05 05:15:04;;;;;;;;;21.00;20.75;;;;;28.03;52.90;100622.94;146611;633;46020;-66
2023/07/05 05:17:57;;;;;;;;;20.50;19.25;;;;;28.15;53.09;100613.78;146606;569;46016;-66
2023/07/05 05:20:59;;;;;;;;;20.50;18.00;;;;;28.29;52.38;100610.81;146611;654;46010;-66
2023/07/05 05:24:00;;;;;;;;;18.00;17.75;;;;;28.37;52.01;100614.16;146607;630;47016;-64
2023/07/05 05:27:05;;;;;;;;;23.75;23.00;;;;;28.48;51.26;100620.16;146611;602;47010;-64
2023/07/05 05:29:57;;;;;;;;;30.75;26.00;;;;;28.58;50.54;100604.81;146606;630;47016;-64
2023/07/05 05:32:58;;;;;;;;;24.25;21.50;;;;;28.66;50.85;100604.59;146608;571;46021;-64
2023/07/05 05:35:54;;;;;;;;;27.00;24.00;;;;;28.76;50.42;100609.66;146603;570;46012;-64
2023/07/05 05:38:59;;;;;;;;;27.25;24.00;;;;;28.88;49.27;100608.47;146609;565;46032;-64
2023/07/05 05:41:51;;;;;;;;;23.50;20.75;;;;;28.94;48.45;100602.97;146604;588;47012;-65
2023/07/05 05:44:46;;;;;;;;;20.50;19.25;;;;;28.94;49.19;100594.97;146607;729;46010;-63
2023/07/05 05:47:41;;;;;;;;;23.50;21.75;;;;;29.03;50.40;100598.34;146606;625;46012;-64
2023/07/05 05:50:36;;;;;;;;;25.50;23.00;;;;;29.17;48.82;100593.50;146612;619;46010;-65
2023/07/05 05:53:28;;;;;;;;;21.50;20.75;;;;;29.25;48.78;100588.81;146602;569;47013;-64
2023/07/05 05:56:38;;;;;;;;;20.25;18.50;;;;;28.41;49.38;100431.88;146612;625;46020;-64
2023/07/05 05:59:30;;;;;;;;;24.50;21.50;;;;;29.53;48.77;100599.56;146605;590;46012;-64
2023/07/05 06:02:25;;;;;;;;;23.75;21.50;;;;;29.70;48.17;100596.47;146609;571;46020;-64
2023/07/05 06:05:30;;;;;;;;;22.75;21.25;;;;;29.87;47.97;100593.25;146605;617;46020;-64
2023/07/05 06:08:22;;;;;;;;;25.00;24.50;;;;;30.01;46.67;100588.38;146607;595;47023;-64
2023/07/05 06:11:27;;;;;;;;;25.50;20.75;;;;;30.10;46.88;100590.75;146606;580;46016;-66
2023/07/05 06:14:20;;;;;;;;;22.50;22.00;;;;;30.13;45.99;100588.00;146608;609;47044;-64
2023/07/05 06:17:12;;;;;;;;;24.25;22.50;;;;;30.19;45.52;100580.69;146607;572;47016;-65
2023/07/05 06:20:15;;;;;;;;;22.25;20.75;;;;;30.25;45.94;100573.41;146611;602;46020;-67
2023/07/05 06:23:10;;;;;;;;;20.50;19.25;;;;;30.37;44.92;100575.66;146611;589;46017;-64
2023/07/05 06:26:04;;;;;;;;;21.75;18.25;;;;;30.50;45.36;100573.44;146606;580;47010;-64
2023/07/05 06:29:04;;;;;;;;;25.00;22.00;;;;;30.63;45.06;100581.06;146604;563;47012;-66
2023/07/05 06:32:03;;;;;;;;;21.50;19.25;;;;;30.72;43.62;100578.94;146608;585;46020;-66
2023/07/05 06:35:05;;;;;;;;;15.25;15.25;;;;;30.82;45.35;100583.06;146604;565;46042;-66
2023/07/05 06:38:03;;;;;;;;;17.50;16.75;;;;;30.98;43.68;100579.87;146606;577;47010;-65
2023/07/05 06:41:01;;;;;;;;;20.25;19.50;;;;;31.13;44.46;100570.41;146602;595;47012;-67
2023/07/05 06:43:53;;;;;;;;;22.50;19.25;;;;;31.27;43.74;100577.00;146608;624;46020;-67
2023/07/05 06:46:45;;;;;;;;;19.50;18.00;;;;;31.43;42.38;100574.66;146603;564;46016;-66
2023/07/05 06:49:38;;;;;;;;;22.75;18.50;;;;;31.58;42.87;100573.19;146608;576;46012;-66
2023/07/05 06:52:33;;;;;;;;;18.25;16.50;;;;;31.72;43.01;100578.03;146605;599;46017;-67
2023/07/05 06:55:43;;;;;;;;;18.75;18.75;;;;;31.40;43.35;100509.59;146605;661;47010;-66
2023/07/05 06:58:43;;;;;;;;;21.50;20.50;;;;;31.80;43.42;100578.59;146602;582;47012;-66
2023/07/05 07:01:43;;;;;;;;;21.25;20.25;;;;;31.78;44.09;100577.81;146610;575;46010;-68
2023/07/05 07:04:46;;;;;;;;;23.25;20.25;;;;;31.79;43.13;100578.69;146604;591;46012;-65
2023/07/05 07:07:41;;;;;;;;;19.50;16.50;;;;;31.82;42.93;100573.19;146611;564;46021;-66
2023/07/05 07:10:37;;;;;;;;;18.50;16.50;;;;;31.90;42.60;100579.13;146610;615;46016;-66
2023/07/05 07:13:41;;;;;;;;;19.00;17.25;;;;;32.01;43.00;100574.25;146612;583;46010;-67
2023/07/05 07:16:40;;;;;;;;;19.75;17.25;;;;;32.20;43.44;100577.03;146607;619;46017;-67
2023/07/05 07:19:33;;;;;;;;;20.75;18.00;;;;;32.35;41.73;100578.22;146614;563;46012;-65
2023/07/05 07:22:28;;;;;;;;;19.75;18.50;;;;;32.43;42.38;100573.41;146604;600;46015;-68
2023/07/05 07:25:23;;;;;;;;;19.00;16.50;;;;;32.57;41.89;100580.91;146610;613;47010;-66
2023/07/05 07:28:18;;;;;;;;;16.00;15.25;;;;;32.72;41.57;100585.63;146608;584;46016;-65
2023/07/05 07:31:28;;;;;;;;;16.75;15.25;;;;;32.88;42.18;100583.16;146612;570;46021;-68
2023/07/05 07:34:20;;;;;;;;;16.75;15.75;;;;;33.08;41.93;100585.00;146607;654;47016;-67
2023/07/05 07:37:30;;;;;;;;;19.75;18.25;;;;;33.17;41.55;100581.88;146611;565;47010;-68
2023/07/05 07:40:26;;;;;;;;;19.75;18.00;;;;;33.20;41.45;100583.56;146612;580;46918;-68
2023/07/05 07:43:30;;;;;;;;;21.25;20.25;;;;;33.25;41.81;100581.56;146613;578;46020;-67
2023/07/05 07:46:36;;;;;;;;;17.50;16.25;;;;;33.28;41.44;100578.75;146606;577;46013;-65
2023/07/05 07:49:39;;;;;;;;;18.75;17.00;;;;;33.32;41.14;100589.25;146612;574;46020;-66
2023/07/05 07:52:38;;;;;;;;;20.50;19.25;;;;;33.42;41.17;100583.47;146611;565;46017;-65
2023/07/05 07:55:34;;;;;;;;;17.00;16.00;;;;;33.41;42.64;100582.59;146613;628;46020;-67
2023/07/05 07:58:28;;;;;;;;;20.50;18.25;;;;;33.47;42.67;100582.31;146608;584;46014;-66
2023/07/05 08:01:40;;;;;;;;;19.25;16.50;;;;;33.57;42.03;100583.66;146606;592;46021;-66
2023/07/05 08:04:42;;;;;;;;;18.75;18.25;;;;;33.59;41.53;100590.81;146607;575;46014;-65
2023/07/05 08:07:40;;;;;;;;;18.00;17.25;;;;;33.66;43.33;100584.19;146613;633;46020;-67
2023/07/05 08:10:42;;;;;;;;;16.50;15.00;;;;;33.72;43.61;100578.53;146608;579;47012;-66
2023/07/05 08:13:42;;;;;;;;;18.50;16.25;;;;;33.75;42.96;100575.69;146610;564;46020;-68
2023/07/05 08:16:36;;;;;;;;;14.00;12.50;;;;;33.72;43.05;100582.06;146608;618;45577;-66
2023/07/05 08:19:37;;;;;;;;;20.25;18.50;;;;;33.70;42.89;100578.56;146613;598;46020;-67
2023/07/05 08:22:33;;;;;;;;;19.00;17.25;;;;;33.74;42.09;100569.44;146607;586;46017;-66
2023/07/05 08:25:28;;;;;;;;;15.50;15.50;;;;;33.69;43.98;100579.53;146612;655;46010;-66
2023/07/05 08:28:31;;;;;;;;;15.75;15.25;;;;;33.38;44.07;100576.50;146611;597;46015;-66
2023/07/05 08:31:25;;;;;;;;;19.25;16.75;;;;;33.05;44.76;100587.81;146603;586;47010;-66
2023/07/05 08:34:27;;;;;;;;;13.75;13.50;;;;;32.85;45.01;100584.16;146609;710;47012;-66
2023/07/05 08:37:28;;;;;;;;;16.00;15.75;;;;;32.74;44.23;100578.38;146607;580;46020;-66
2023/07/05 08:40:24;;;;;;;;;18.25;15.75;;;;;32.62;44.59;100579.78;146609;622;47014;-67
2023/07/05 08:44:00;;;;;;;;;16.00;15.00;;;;;32.57;46.03;100579.09;146611;646;46010;-65
2023/07/05 08:47:22;;;;;;;;;16.25;15.25;;;;;32.32;46.55;100571.19;146610;589;46012;-65
2023/07/05 08:50:41;;;;;;;;;16.75;15.00;;;;;31.79;46.00;100542.00;146615;569;46010;-68
2023/07/05 08:54:10;;;;;;;;;18.25;16.75;;;;;31.85;47.32;100565.03;146612;582;46016;-68
2023/07/05 08:57:19;;;;;;;;;16.75;16.50;;;;;31.85;45.59;100565.03;146606;582;47012;-67
2023/07/05 09:00:38;;;;;;;;;18.50;17.75;;;;;31.85;46.00;100563.22;146609;601;46037;-66
2023/07/05 09:03:32;;;;;;;;;16.75;15.50;;;;;31.94;44.00;100564.69;146609;577;46020;-66
2023/07/05 09:06:54;;;;;;;;;14.25;13.50;;;;;31.82;43.52;100559.78;146609;658;46017;-67
2023/07/05 09:10:22;;;;;;;;;12.50;11.75;;;;;31.47;44.83;100568.25;146611;638;46010;-66
2023/07/05 09:13:44;;;;;;;;;15.75;13.75;;;;;31.31;44.50;100564.38;146610;565;46012;-67
2023/07/05 09:17:18;;;;;;;;;14.25;13.00;;;;;29.96;42.59;100357.72;146610;656;46010;-65
2023/07/05 09:20:58;;;;;;;;;11.50;11.25;;;;;30.99;42.48;100561.06;146605;564;46923;-66
2023/07/05 09:24:04;;;;;;;;;17.00;15.00;;;;;30.85;42.35;100559.81;146610;563;47012;-66
2023/07/05 09:27:26;;;;;;;;;17.25;16.00;;;;;30.92;43.10;100553.31;146608;622;47030;-67
2023/07/05 09:30:52;;;;;;;;;17.00;15.75;;;;;31.11;43.73;100559.75;146614;685;47012;-67
2023/07/05 09:34:11;;;;;;;;;16.50;15.50;;;;;31.26;43.49;100552.94;146608;621;46016;-66
2023/07/05 09:37:08;;;;;;;;;16.75;15.00;;;;;31.40;40.87;100553.34;146614;569;46021;-68
2023/07/05 09:40:24;;;;;;;;;16.75;15.50;;;;;31.39;43.37;100556.06;146607;588;46012;-67
2023/07/05 09:43:49;;;;;;;;;14.00;14.00;;;;;29.14;42.52;100179.78;146613;692;46021;-66
2023/07/05 09:46:51;;;;;;;;;15.00;13.33;;;;;31.30;40.42;100550.09;146604;600;47023;-64
2023/07/05 09:49:43;;;;;;;;;14.25;14.25;;;;;31.40;41.18;100539.97;146614;583;46010;-65
2023/07/05 09:52:35;;;;;;;;;13.25;11.75;;;;;31.55;41.45;100537.59;146605;695;46017;-68
2023/07/05 09:55:33;;;;;;;;;13.25;13.25;;;;;31.71;40.62;100536.97;146613;564;46020;-66
2023/07/05 09:58:28;;;;;;;;;14.25;12.25;;;;;31.82;39.24;100535.66;146608;651;47013;-69
2023/07/05 10:01:28;;;;;;;;;13.00;12.00;;;;;31.83;39.37;100534.72;146612;657;47020;-69
2023/07/05 10:04:39;;;;;;;;;12.25;11.25;;;;;31.83;39.43;100532.03;146606;681;47012;-66
2023/07/05 10:08:06;;;;;;;;;15.00;13.33;;;;;30.70;38.62;100331.87;146613;575;46021;-67
2023/07/05 10:11:01;;;;;;;;;12.00;9.00;;;;;31.86;38.04;100537.28;146608;660;47018;-67
2023/07/05 10:14:40;;;;;;;;;12.67;11.00;;;;;31.82;36.41;100524.94;146618;581;46010;-68
2023/07/05 10:17:52;;;;;;;;;13.50;13.50;;;;;31.74;37.30;100518.03;146605;677;47012;-67
2023/07/05 10:20:47;;;;;;;;;14.25;13.75;;;;;31.71;37.04;100519.97;146611;624;46021;-66
2023/07/05 10:23:44;;;;;;;;;14.33;12.33;;;;;31.77;37.84;100521.56;146600;573;49916;-66
2023/07/05 10:26:42;;;;;;;;;13.00;12.00;;;;;31.90;37.11;100520.16;146610;591;46020;-65
2023/07/05 10:29:36;;;;;;;;;10.67;10.00;;;;;32.03;37.59;100513.38;146608;629;48012;-67
2023/07/05 10:32:35;;;;;;;;;11.75;10.50;;;;;32.15;38.50;100518.22;146614;563;46010;-68
2023/07/05 10:35:35;;;;;;;;;10.75;9.00;;;;;32.36;37.60;100515.56;146610;638;46012;-65
2023/07/05 10:38:44;;;;;;;;;11.00;10.75;;;;;32.56;37.84;100512.94;146613;563;47010;-66
2023/07/05 10:41:42;;;;;;;;;14.75;13.50;;;;;32.82;38.95;100524.34;146608;680;46917;-66
2023/07/05 10:44:40;;;;;;;;;17.50;14.25;;;;;33.03;38.64;100510.00;146615;680;46010;-66
2023/07/05 10:47:36;;;;;;;;;13.00;12.50;;;;;33.23;38.35;100505.50;146608;639;46917;-65
2023/07/05 10:50:59;;;;;;;;;11.00;11.00;;;;;33.33;38.90;100506.81;146607;666;48010;-66
2023/07/05 10:54:30;;;;;;;;;13.00;11.50;;;;;33.41;37.68;100501.09;146608;598;47012;-66
2023/07/05 10:57:55;;;;;;;;;;;;;;;;;;;;;
2023/07/05 11:01:14;;;;;;;;;13.25;13.25;;;;;32.24;39.46;100306.84;146605;565;46016;-65
2023/07/05 11:04:16;;;;;;;;;15.50;13.75;;;;;33.34;39.48;100503.22;146616;674;46020;-66
2023/07/05 11:07:12;;;;;;;;;15.00;14.75;;;;;33.28;39.97;100496.31;146616;638;47012;-69
2023/07/05 11:10:07;;;;;;;;;13.00;12.50;;;;;33.24;40.32;100500.09;146622;574;46010;-67
2023/07/05 11:13:04;;;;;;;;;15.50;13.00;;;;;33.29;41.57;100498.03;146618;581;46012;-67
2023/07/05 11:16:09;;;;;;;;;13.75;13.00;;;;;33.29;41.07;100484.59;146617;639;46010;-66
2023/07/05 11:19:15;;;;;;;;;15.50;12.75;;;;;33.31;40.79;100497.97;146606;633;47913;-66
2023/07/05 11:22:32;;;;;;;;;14.50;13.75;;;;;33.30;42.02;100493.53;146617;674;47010;-66
2023/07/05 11:26:12;;;;;;;;;16.50;13.75;;;;;31.14;42.13;100117.75;146612;577;47915;-64
2023/07/05 11:29:40;;;;;;;;;15.50;15.25;;;;;33.35;43.07;100484.31;146617;679;46012;-68
2023/07/05 11:33:26;;;;;;;;;15.75;15.00;;;;;31.15;43.53;100108.75;146617;581;46915;-65
2023/07/05 11:36:38;;;;;;;;;16.75;16.75;;;;;33.29;43.22;100478.34;146621;593;46031;-66
2023/07/05 11:39:52;;;;;;;;;15.50;14.75;;;;;33.20;43.67;100465.34;146614;596;47016;-67
2023/07/05 11:42:49;;;;;;;;;15.75;15.00;;;;;33.15;44.57;100473.66;146621;642;46010;-66
2023/07/05 11:46:09;;;;;;;;;18.25;15.50;;;;;31.01;43.87;100095.13;146618;611;46012;-67
2023/07/05 11:49:40;;;;;;;;;17.50;17.00;;;;;33.24;43.92;100465.16;146623;642;46010;-66
2023/07/05 11:52:50;;;;;;;;;13.75;13.50;;;;;33.27;45.18;100448.88;146619;569;46016;-66
2023/07/05 11:55:46;;;;;;;;;21.25;16.00;;;;;33.35;45.72;100451.19;146615;566;47917;-66
2023/07/05 11:58:46;;;;;;;;;16.00;16.00;;;;;33.42;45.12;100439.19;146617;569;46016;-66
2023/07/05 12:01:49;;;;;;;;;12.75;11.75;;;;;33.48;44.29;100443.41;146620;630;46029;-65
2023/07/05 12:04:50;;;;;;;;;18.25;17.50;;;;;33.47;45.39;100434.47;146619;619;46014;-65
2023/07/05 12:07:55;;;;;;;;;16.00;15.25;;;;;33.50;44.95;100436.19;146621;584;46010;-64
2023/07/05 12:11:07;;;;;;;;;17.25;17.00;;;;;31.43;44.31;100086.12;146614;580;47017;-65
2023/07/05 12:14:30;;;;;;;;;;;;;;;;;;;;;
2023/07/05 12:17:40;;;;;;;;;17.50;13.00;;;;;33.61;44.60;100430.28;146618;587;46017;-65
2023/07/05 12:20:58;;;;;;;;;18.75;17.00;;;;;33.60;44.98;100429.41;146619;622;47010;-66
2023/07/05 12:24:02;;;;;;;;;14.00;12.50;;;;;33.59;44.59;100427.69;146619;573;46014;-64
2023/07/05 12:27:03;;;;;;;;;10.50;9.75;;;;;33.53;45.00;100425.28;146616;576;46021;-66
2023/07/05 12:30:08;;;;;;;;;16.75;16.25;;;;;33.45;45.90;100420.22;146617;569;46016;-66
2023/07/05 12:33:02;;;;;;;;;16.25;14.75;;;;;33.38;46.43;100409.87;146619;567;46020;-66
2023/07/05 12:36:41;;;;;;;;;14.50;12.75;;;;;30.73;44.82;99953.56;146619;584;46016;-65
2023/07/05 12:39:46;;;;;;;;;18.25;17.00;;;;;31.17;45.72;100036.41;146620;574;47010;-65
2023/07/05 12:43:10;;;;;;;;;15.00;14.50;;;;;33.23;46.42;100390.84;146617;570;47012;-66
2023/07/05 12:46:24;;;;;;;;;15.75;14.75;;;;;33.18;46.98;100375.87;146619;614;46020;-66
2023/07/05 12:49:30;;;;;;;;;17.00;14.50;;;;;33.15;46.78;100381.41;146619;642;47014;-67
2023/07/05 12:52:27;;;;;;;;;16.50;16.50;;;;;33.10;47.33;100376.28;146618;603;47010;-66
2023/07/05 12:55:39;;;;;;;;;21.25;18.00;;;;;33.09;46.64;100383.47;146618;583;46015;-67
2023/07/05 12:58:35;;;;;;;;;18.00;17.50;;;;;33.04;48.22;100373.88;146621;580;46010;-66
2023/07/05 13:01:38;;;;;;;;;13.50;13.50;;;;;33.01;48.30;100371.34;146618;615;46917;-66
2023/07/05 13:04:39;;;;;;;;;14.75;14.75;;;;;32.98;49.58;100366.97;146622;634;46012;-67
2023/07/05 13:07:37;;;;;;;;;19.75;18.25;;;;;32.81;48.74;100366.88;146617;595;46014;-67
2023/07/05 13:10:39;;;;;;;;;16.00;14.75;;;;;32.68;49.07;100388.06;146620;636;46021;-66
2023/07/05 13:13:47;;;;;;;;;15.75;15.75;;;;;32.51;48.02;100374.53;146616;582;46916;-68
2023/07/05 13:17:39;;;;;;;;;15.75;15.75;;;;;31.17;48.97;100146.19;146620;587;46020;-67
2023/07/05 13:20:36;;;;;;;;;19.25;18.25;;;;;32.44;48.59;100357.81;146616;564;46016;-67
2023/07/05 13:23:52;;;;;;;;;20.50;20.25;;;;;32.46;48.92;100358.59;146620;629;46020;-67
2023/07/05 13:26:51;;;;;;;;;17.25;16.00;;;;;32.42;49.67;100349.78;146612;575;47013;-67
2023/07/05 13:29:47;;;;;;;;;18.00;16.25;;;;;32.48;48.81;100348.69;146620;683;46010;-66
2023/07/05 13:32:59;;;;;;;;;19.25;16.00;;;;;30.59;47.19;99999.63;146614;575;47917;-68
2023/07/05 13:36:05;;;;;;;;;17.50;15.75;;;;;32.88;47.86;100349.53;146620;565;47010;-67
2023/07/05 13:38:59;;;;;;;;;15.50;14.75;;;;;33.00;47.64;100338.22;146620;675;46016;-68
2023/07/05 13:42:03;;;;;;;;;16.50;15.75;;;;;30.87;46.58;99955.63;146622;628;46011;-67
2023/07/05 13:44:58;;;;;;;;;14.50;14.50;;;;;33.10;47.62;100334.16;146619;563;46016;-66
2023/07/05 13:47:55;;;;;;;;;16.00;15.50;;;;;32.99;47.13;100331.13;146620;609;46020;-66
2023/07/05 13:50:48;;;;;;;;;16.00;14.25;;;;;32.82;47.18;100333.69;146616;616;46016;-66
2023/07/05 13:53:43;;;;;;;;;15.00;15.00;;;;;32.67;47.92;100332.59;146621;604;47010;-67
2023/07/05 13:56:48;;;;;;;;;15.25;13.75;;;;;30.55;48.95;99995.34;146620;566;46013;-66
2023/07/05 14:00:07;;;;;;;;;13.00;13.00;;;;;32.21;50.21;100321.25;146613;691;47020;-70
2023/07/05 14:03:02;;;;;;;;;18.00;16.00;;;;;31.99;51.85;100321.31;146618;594;46017;-67